sensor_id;sensor_type;location;lat;lon;timestamp;pressure;altitude;pressure_sealevel;temperature;humidity
21588;BME280;10956;48.878;13.316;2023-03-11T00:00:34;92422.78;;;1.59;100.00
21588;BME280;10956;48.878;13.316;2023-03-11T00:03:01;92421.47;;;1.56;100.00
21588;BME280;10956;48.878;13.316;2023-03-11T00:05:30;92421.47;;;1.56;100.00
21588;BME280;10956;48.878;13.316;2023-03-11T00:07:56;92440.66;;;1.50;100.00
21588;BME280;10956;48.878;13.316;2023-03-11T00:10:29;92444.28;;;1.49;100.00
21588;BME280;10956;48.878;13.316;2023-03-11T00:12:55;92461.88;;;1.37;100.00
21588;BME280;10956;48.878;13.316;2023-03-11T00:15:21;92422.97;;;1.37;100.00
21588;BME280;10956;48.878;13.316;2023-03-11T00:17:47;92463.44;;;1.38;100.00
21588;BME280;10956;48.878;13.316;2023-03-11T00:22:49;92448.94;;;1.42;100.00
21588;BME280;10956;48.878;13.316;2023-03-11T00:25:16;92442.16;;;1.36;100.00
21588;BME280;10956;48.878;13.316;2023-03-11T00:27:41;92464.81;;;1.09;100.00
21588;BME280;10956;48.878;13.316;2023-03-11T00:30:07;92480.72;;;0.85;100.00
21588;BME280;10956;48.878;13.316;2023-03-11T00:32:33;92490.44;;;0.68;100.00
21588;BME280;10956;48.878;13.316;2023-03-11T00:34:58;92502.56;;;0.62;100.00
21588;BME280;10956;48.878;13.316;2023-03-11T00:37:23;92467.16;;;0.73;100.00
21588;BME280;10956;48.878;13.316;2023-03-11T00:39:49;92497.34;;;0.57;100.00
21588;BME280;10956;48.878;13.316;2023-03-11T00:42:14;92493.19;;;0.56;100.00
21588;BME280;10956;48.878;13.316;2023-03-11T00:44:40;92502.34;;;0.64;100.00
21588;BME280;10956;48.878;13.316;2023-03-11T00:47:05;92490.94;;;0.65;100.00
21588;BME280;10956;48.878;13.316;2023-03-11T00:49:31;92512.16;;;0.62;100.00
21588;BME280;10956;48.878;13.316;2023-03-11T00:51:56;92512.25;;;0.72;100.00
21588;BME280;10956;48.878;13.316;2023-03-11T00:54:22;92515.97;;;0.81;100.00
21588;BME280;10956;48.878;13.316;2023-03-11T00:56:47;92515.47;;;0.84;100.00
21588;BME280;10956;48.878;13.316;2023-03-11T00:59:13;92528.47;;;0.89;100.00
21588;BME280;10956;48.878;13.316;2023-03-11T01:01:38;92527.69;;;0.89;100.00
21588;BME280;10956;48.878;13.316;2023-03-11T01:04:03;92521.47;;;0.90;100.00
21588;BME280;10956;48.878;13.316;2023-03-11T01:06:29;92526.41;;;0.91;100.00
21588;BME280;10956;48.878;13.316;2023-03-11T01:08:54;92504.34;;;0.89;100.00
21588;BME280;10956;48.878;13.316;2023-03-11T01:11:20;92534.69;;;0.88;100.00
21588;BME280;10956;48.878;13.316;2023-03-11T01:13:45;92532.63;;;0.90;100.00
21588;BME280;10956;48.878;13.316;2023-03-11T01:16:11;92531.13;;;0.94;100.00
21588;BME280;10956;48.878;13.316;2023-03-11T01:18:36;92539.59;;;0.85;100.00
21588;BME280;10956;48.878;13.316;2023-03-11T01:21:01;92531.03;;;0.84;100.00
21588;BME280;10956;48.878;13.316;2023-03-11T01:23:27;92534.41;;;0.85;100.00
21588;BME280;10956;48.878;13.316;2023-03-11T01:25:53;92547.56;;;0.78;100.00
21588;BME280;10956;48.878;13.316;2023-03-11T01:28:18;92515.97;;;0.81;100.00
21588;BME280;10956;48.878;13.316;2023-03-11T01:30:43;92535.22;;;0.90;100.00
21588;BME280;10956;48.878;13.316;2023-03-11T01:33:15;92551.31;;;0.92;100.00
21588;BME280;10956;48.878;13.316;2023-03-11T01:35:41;92555.00;;;0.96;100.00
21588;BME280;10956;48.878;13.316;2023-03-11T01:38:08;92543.53;;;0.92;100.00
21588;BME280;10956;48.878;13.316;2023-03-11T01:40:37;92558.94;;;1.04;100.00
21588;BME280;10956;48.878;13.316;2023-03-11T01:43:04;92547.94;;;0.92;100.00
21588;BME280;10956;48.878;13.316;2023-03-11T01:48:14;92561.44;;;0.94;100.00
21588;BME280;10956;48.878;13.316;2023-03-11T01:50:43;92555.97;;;0.90;100.00
21588;BME280;10956;48.878;13.316;2023-03-11T01:53:12;92564.75;;;0.84;100.00
21588;BME280;10956;48.878;13.316;2023-03-11T01:55:38;92575.75;;;0.96;100.00
21588;BME280;10956;48.878;13.316;2023-03-11T01:58:07;92560.66;;;0.93;100.00
21588;BME280;10956;48.878;13.316;2023-03-11T02:00:35;92558.03;;;0.88;100.00
21588;BME280;10956;48.878;13.316;2023-03-11T02:03:07;92590.22;;;0.92;100.00
21588;BME280;10956;48.878;13.316;2023-03-11T02:05:34;92568.91;;;0.85;100.00
21588;BME280;10956;48.878;13.316;2023-03-11T02:08:00;92576.63;;;0.80;100.00
21588;BME280;10956;48.878;13.316;2023-03-11T02:10:26;92588.94;;;0.68;100.00
21588;BME280;10956;48.878;13.316;2023-03-11T02:12:51;92575.94;;;0.63;100.00
21588;BME280;10956;48.878;13.316;2023-03-11T02:15:17;92576.31;;;0.50;100.00
21588;BME280;10956;48.878;13.316;2023-03-11T02:17:43;92568.31;;;0.51;100.00
21588;BME280;10956;48.878;13.316;2023-03-11T02:22:39;92596.28;;;0.49;100.00
21588;BME280;10956;48.878;13.316;2023-03-11T02:27:33;92578.97;;;0.55;100.00
21588;BME280;10956;48.878;13.316;2023-03-11T02:30:02;92587.97;;;0.47;100.00
21588;BME280;10956;48.878;13.316;2023-03-11T02:32:28;92608.94;;;0.46;100.00
21588;BME280;10956;48.878;13.316;2023-03-11T02:34:54;92602.28;;;0.55;100.00
21588;BME280;10956;48.878;13.316;2023-03-11T02:37:19;92598.56;;;0.46;100.00
21588;BME280;10956;48.878;13.316;2023-03-11T02:39:47;92604.03;;;0.49;100.00
21588;BME280;10956;48.878;13.316;2023-03-11T02:42:20;92629.66;;;0.46;100.00
21588;BME280;10956;48.878;13.316;2023-03-11T02:45:12;92628.34;;;0.43;100.00
21588;BME280;10956;48.878;13.316;2023-03-11T02:47:37;92625.97;;;0.42;100.00
21588;BME280;10956;48.878;13.316;2023-03-11T02:50:04;92610.91;;;0.39;100.00
21588;BME280;10956;48.878;13.316;2023-03-11T02:52:34;92629.28;;;0.37;100.00
21588;BME280;10956;48.878;13.316;2023-03-11T02:55:00;92600.44;;;0.28;100.00
21588;BME280;10956;48.878;13.316;2023-03-11T02:57:25;92631.69;;;0.22;100.00
21588;BME280;10956;48.878;13.316;2023-03-11T02:59:51;92611.28;;;0.25;100.00
21588;BME280;10956;48.878;13.316;2023-03-11T03:02:16;92625.88;;;0.31;100.00
21588;BME280;10956;48.878;13.316;2023-03-11T03:04:42;92620.38;;;0.28;100.00
21588;BME280;10956;48.878;13.316;2023-03-11T03:07:07;92640.88;;;0.29;100.00
21588;BME280;10956;48.878;13.316;2023-03-11T03:09:34;92642.25;;;0.37;100.00
21588;BME280;10956;48.878;13.316;2023-03-11T03:12:00;92635.38;;;0.48;100.00
21588;BME280;10956;48.878;13.316;2023-03-11T03:14:26;92628.50;;;0.37;100.00
21588;BME280;10956;48.878;13.316;2023-03-11T03:16:51;92655.34;;;0.47;100.00
21588;BME280;10956;48.878;13.316;2023-03-11T03:19:17;92611.94;;;0.38;100.00
21588;BME280;10956;48.878;13.316;2023-03-11T03:21:42;92651.13;;;0.41;100.00
21588;BME280;10956;48.878;13.316;2023-03-11T03:24:08;92626.47;;;0.39;100.00
21588;BME280;10956;48.878;13.316;2023-03-11T03:26:33;92649.66;;;0.50;100.00
21588;BME280;10956;48.878;13.316;2023-03-11T03:28:59;92644.25;;;0.52;100.00
21588;BME280;10956;48.878;13.316;2023-03-11T03:31:25;92645.56;;;0.54;100.00
21588;BME280;10956;48.878;13.316;2023-03-11T03:33:50;92654.97;;;0.60;100.00
21588;BME280;10956;48.878;13.316;2023-03-11T03:36:15;92660.28;;;0.49;100.00
21588;BME280;10956;48.878;13.316;2023-03-11T03:38:41;92643.69;;;0.50;100.00
21588;BME280;10956;48.878;13.316;2023-03-11T03:41:07;92659.19;;;0.45;100.00
21588;BME280;10956;48.878;13.316;2023-03-11T03:43:33;92660.69;;;0.41;100.00
21588;BME280;10956;48.878;13.316;2023-03-11T03:46:01;92674.19;;;0.43;100.00
21588;BME280;10956;48.878;13.316;2023-03-11T03:48:27;92682.94;;;0.37;100.00
21588;BME280;10956;48.878;13.316;2023-03-11T03:50:53;92676.13;;;0.30;100.00
21588;BME280;10956;48.878;13.316;2023-03-11T03:53:18;92683.19;;;0.18;100.00
21588;BME280;10956;48.878;13.316;2023-03-11T03:55:44;92700.00;;;0.16;100.00
21588;BME280;10956;48.878;13.316;2023-03-11T03:58:09;92707.06;;;0.20;100.00
21588;BME280;10956;48.878;13.316;2023-03-11T04:00:35;92704.53;;;0.25;100.00
21588;BME280;10956;48.878;13.316;2023-03-11T04:03:00;92716.06;;;0.35;100.00
21588;BME280;10956;48.878;13.316;2023-03-11T04:05:26;92713.78;;;0.38;100.00
21588;BME280;10956;48.878;13.316;2023-03-11T04:07:52;92709.44;;;0.44;100.00
21588;BME280;10956;48.878;13.316;2023-03-11T04:10:18;92713.31;;;0.41;100.00
21588;BME280;10956;48.878;13.316;2023-03-11T04:12:43;92705.16;;;0.32;100.00
21588;BME280;10956;48.878;13.316;2023-03-11T04:15:09;92698.78;;;0.40;100.00
21588;BME280;10956;48.878;13.316;2023-03-11T04:17:35;92701.38;;;0.40;100.00
21588;BME280;10956;48.878;13.316;2023-03-11T04:20:01;92719.88;;;0.49;100.00
21588;BME280;10956;48.878;13.316;2023-03-11T04:22:26;92716.13;;;0.40;100.00
21588;BME280;10956;48.878;13.316;2023-03-11T04:24:52;92717.69;;;0.41;100.00
21588;BME280;10956;48.878;13.316;2023-03-11T04:27:17;92719.19;;;0.37;100.00
21588;BME280;10956;48.878;13.316;2023-03-11T04:29:42;92715.53;;;0.32;100.00
21588;BME280;10956;48.878;13.316;2023-03-11T04:32:08;92724.31;;;0.31;100.00
21588;BME280;10956;48.878;13.316;2023-03-11T04:34:33;92723.22;;;0.27;100.00
21588;BME280;10956;48.878;13.316;2023-03-11T04:36:59;92732.97;;;0.20;100.00
21588;BME280;10956;48.878;13.316;2023-03-11T04:39:24;92723.22;;;0.27;100.00
21588;BME280;10956;48.878;13.316;2023-03-11T04:41:49;92727.94;;;0.30;100.00
21588;BME280;10956;48.878;13.316;2023-03-11T04:44:15;92735.69;;;0.30;100.00
21588;BME280;10956;48.878;13.316;2023-03-11T04:46:40;92734.69;;;0.31;100.00
21588;BME280;10956;48.878;13.316;2023-03-11T04:49:05;92738.28;;;0.30;100.00
21588;BME280;10956;48.878;13.316;2023-03-11T04:51:31;92740.88;;;0.30;100.00
21588;BME280;10956;48.878;13.316;2023-03-11T04:53:56;92734.69;;;0.31;100.00
21588;BME280;10956;48.878;13.316;2023-03-11T04:56:22;92733.66;;;0.32;100.00
21588;BME280;10956;48.878;13.316;2023-03-11T04:58:47;92740.00;;;0.42;100.00
21588;BME280;10956;48.878;13.316;2023-03-11T05:01:12;92745.81;;;0.32;100.00
21588;BME280;10956;48.878;13.316;2023-03-11T05:03:38;92731.06;;;0.32;100.00
21588;BME280;10956;48.878;13.316;2023-03-11T05:06:03;92742.63;;;0.25;100.00
21588;BME280;10956;48.878;13.316;2023-03-11T05:08:29;92742.94;;;0.28;100.00
21588;BME280;10956;48.878;13.316;2023-03-11T05:10:54;92750.53;;;0.35;100.00
21588;BME280;10956;48.878;13.316;2023-03-11T05:13:20;92766.88;;;0.36;100.00
21588;BME280;10956;48.878;13.316;2023-03-11T05:15:46;92760.34;;;0.33;100.00
21588;BME280;10956;48.878;13.316;2023-03-11T05:18:12;92757.53;;;0.35;100.00
21588;BME280;10956;48.878;13.316;2023-03-11T05:20:38;92779.03;;;0.35;100.00
21588;BME280;10956;48.878;13.316;2023-03-11T05:23:03;92781.47;;;0.42;100.00
21588;BME280;10956;48.878;13.316;2023-03-11T05:25:29;92798.03;;;0.41;100.00
21588;BME280;10956;48.878;13.316;2023-03-11T05:27:55;92790.09;;;0.47;100.00
21588;BME280;10956;48.878;13.316;2023-03-11T05:30:20;92791.97;;;0.52;100.00
21588;BME280;10956;48.878;13.316;2023-03-11T05:32:46;92792.44;;;0.49;100.00
21588;BME280;10956;48.878;13.316;2023-03-11T05:35:13;92802.34;;;0.52;100.00
21588;BME280;10956;48.878;13.316;2023-03-11T05:37:38;92799.97;;;0.50;100.00
21588;BME280;10956;48.878;13.316;2023-03-11T05:40:05;92805.81;;;0.41;99.93
21588;BME280;10956;48.878;13.316;2023-03-11T05:42:32;92805.03;;;0.40;100.00
21588;BME280;10956;48.878;13.316;2023-03-11T05:44:58;92806.91;;;0.45;100.00
21588;BME280;10956;48.878;13.316;2023-03-11T05:47:23;92811.78;;;0.41;100.00
21588;BME280;10956;48.878;13.316;2023-03-11T05:49:48;92799.28;;;0.38;100.00
21588;BME280;10956;48.878;13.316;2023-03-11T05:52:14;92819.47;;;0.36;100.00
21588;BME280;10956;48.878;13.316;2023-03-11T05:54:40;92817.59;;;0.31;100.00
21588;BME280;10956;48.878;13.316;2023-03-11T05:57:05;92808.31;;;0.36;100.00
21588;BME280;10956;48.878;13.316;2023-03-11T05:59:31;92812.88;;;0.28;100.00
21588;BME280;10956;48.878;13.316;2023-03-11T06:02:00;92819.72;;;0.35;100.00
21588;BME280;10956;48.878;13.316;2023-03-11T06:04:26;92824.34;;;0.32;100.00
21588;BME280;10956;48.878;13.316;2023-03-11T06:06:52;92833.59;;;0.45;100.00
21588;BME280;10956;48.878;13.316;2023-03-11T06:09:17;92838.16;;;0.55;100.00
21588;BME280;10956;48.878;13.316;2023-03-11T06:11:43;92831.09;;;0.50;100.00
21588;BME280;10956;48.878;13.316;2023-03-11T06:14:10;92840.97;;;0.53;100.00
21588;BME280;10956;48.878;13.316;2023-03-11T06:16:37;92845.38;;;0.53;100.00
21588;BME280;10956;48.878;13.316;2023-03-11T06:19:02;92835.00;;;0.53;100.00
21588;BME280;10956;48.878;13.316;2023-03-11T06:21:27;92838.63;;;0.52;100.00
21588;BME280;10956;48.878;13.316;2023-03-11T06:23:53;92846.63;;;0.50;100.00
21588;BME280;10956;48.878;13.316;2023-03-11T06:26:20;92854.31;;;0.62;100.00
21588;BME280;10956;48.878;13.316;2023-03-11T06:28:47;92852.13;;;0.54;98.60
21588;BME280;10956;48.878;13.316;2023-03-11T06:31:21;92861.56;;;0.60;99.25
21588;BME280;10956;48.878;13.316;2023-03-11T06:33:50;92868.38;;;0.66;100.00
21588;BME280;10956;48.878;13.316;2023-03-11T06:36:17;92861.22;;;0.73;98.76
21588;BME280;10956;48.878;13.316;2023-03-11T06:38:43;92872.69;;;0.77;98.60
21588;BME280;10956;48.878;13.316;2023-03-11T06:41:09;92884.34;;;0.58;95.94
21588;BME280;10956;48.878;13.316;2023-03-11T06:43:35;92886.06;;;0.69;96.82
21588;BME280;10956;48.878;13.316;2023-03-11T06:46:01;92887.16;;;0.73;95.31
21588;BME280;10956;48.878;13.316;2023-03-11T06:48:31;92898.00;;;0.70;96.29
21588;BME280;10956;48.878;13.316;2023-03-11T06:50:58;92895.16;;;0.72;96.77
21588;BME280;10956;48.878;13.316;2023-03-11T06:53:24;92897.22;;;0.70;97.00
21588;BME280;10956;48.878;13.316;2023-03-11T06:55:58;92903.25;;;0.75;96.72
21588;BME280;10956;48.878;13.316;2023-03-11T06:58:23;92911.44;;;0.67;97.31
21588;BME280;10956;48.878;13.316;2023-03-11T07:00:49;92913.72;;;0.47;100.00
21588;BME280;10956;48.878;13.316;2023-03-11T07:03:14;92919.34;;;0.44;100.00
21588;BME280;10956;48.878;13.316;2023-03-11T07:05:39;92914.00;;;0.34;100.00
21588;BME280;10956;48.878;13.316;2023-03-11T07:08:05;92910.09;;;0.48;100.00
21588;BME280;10956;48.878;13.316;2023-03-11T07:10:30;92918.72;;;0.53;100.00
21588;BME280;10956;48.878;13.316;2023-03-11T07:12:56;92915.91;;;0.55;100.00
21588;BME280;10956;48.878;13.316;2023-03-11T07:15:21;92927.38;;;0.59;100.00
21588;BME280;10956;48.878;13.316;2023-03-11T07:17:47;92928.00;;;0.66;100.00
21588;BME280;10956;48.878;13.316;2023-03-11T07:20:12;92927.84;;;0.56;100.00
21588;BME280;10956;48.878;13.316;2023-03-11T07:22:37;92941.53;;;0.68;100.00
21588;BME280;10956;48.878;13.316;2023-03-11T07:25:03;92936.41;;;0.73;100.00
21588;BME280;10956;48.878;13.316;2023-03-11T07:27:29;92941.75;;;0.83;100.00
21588;BME280;10956;48.878;13.316;2023-03-11T07:29:54;92952.06;;;0.78;100.00
21588;BME280;10956;48.878;13.316;2023-03-11T07:32:19;92954.56;;;0.73;100.00
21588;BME280;10956;48.878;13.316;2023-03-11T07:34:46;92961.78;;;0.71;100.00
21588;BME280;10956;48.878;13.316;2023-03-11T07:37:12;92959.66;;;0.68;100.00
21588;BME280;10956;48.878;13.316;2023-03-11T07:39:38;92962.09;;;0.75;100.00
21588;BME280;10956;48.878;13.316;2023-03-11T07:42:04;92972.47;;;0.75;100.00
21588;BME280;10956;48.878;13.316;2023-03-11T07:44:29;92974.38;;;0.79;100.00
21588;BME280;10956;48.878;13.316;2023-03-11T07:46:55;92975.94;;;0.80;99.25
21588;BME280;10956;48.878;13.316;2023-03-11T07:49:20;92974.38;;;0.96;99.24
21588;BME280;10956;48.878;13.316;2023-03-11T07:51:45;92969.66;;;1.10;98.79
21588;BME280;10956;48.878;13.316;2023-03-11T07:54:11;92977.97;;;1.12;99.43
21588;BME280;10956;48.878;13.316;2023-03-11T07:56:36;92982.69;;;1.15;100.00
21588;BME280;10956;48.878;13.316;2023-03-11T07:59:03;92982.06;;;1.08;100.00
21588;BME280;10956;48.878;13.316;2023-03-11T08:01:31;92975.78;;;1.04;100.00
21588;BME280;10956;48.878;13.316;2023-03-11T08:04:02;92976.09;;;1.07;100.00
21588;BME280;10956;48.878;13.316;2023-03-11T08:06:31;92992.91;;;1.05;100.00
21588;BME280;10956;48.878;13.316;2023-03-11T08:08:58;92999.59;;;1.01;100.00
21588;BME280;10956;48.878;13.316;2023-03-11T08:11:24;93002.34;;;0.77;100.00
21588;BME280;10956;48.878;13.316;2023-03-11T08:13:50;92994.78;;;0.59;100.00
21588;BME280;10956;48.878;13.316;2023-03-11T08:16:17;92998.84;;;0.55;100.00
21588;BME280;10956;48.878;13.316;2023-03-11T08:18:44;93000.75;;;0.59;100.00
21588;BME280;10956;48.878;13.316;2023-03-11T08:21:14;93009.94;;;0.67;100.00
21588;BME280;10956;48.878;13.316;2023-03-11T08:23:40;93010.81;;;0.73;100.00
21588;BME280;10956;48.878;13.316;2023-03-11T08:26:08;93015.78;;;0.46;100.00
21588;BME280;10956;48.878;13.316;2023-03-11T08:28:34;93027.13;;;0.56;100.00
21588;BME280;10956;48.878;13.316;2023-03-11T08:31:00;93019.59;;;0.55;100.00
21588;BME280;10956;48.878;13.316;2023-03-11T08:33:26;93033.19;;;0.62;100.00
21588;BME280;10956;48.878;13.316;2023-03-11T08:35:52;93037.44;;;0.68;100.00
21588;BME280;10956;48.878;13.316;2023-03-11T08:38:17;93035.19;;;0.88;100.00
21588;BME280;10956;48.878;13.316;2023-03-11T08:40:43;93040.88;;;1.02;100.00
21588;BME280;10956;48.878;13.316;2023-03-11T08:43:12;93044.94;;;0.81;100.00
21588;BME280;10956;48.878;13.316;2023-03-11T08:45:41;93043.66;;;0.67;100.00
21588;BME280;10956;48.878;13.316;2023-03-11T08:48:09;93048.50;;;0.63;100.00
21588;BME280;10956;48.878;13.316;2023-03-11T08:50:35;93061.88;;;0.72;100.00
21588;BME280;10956;48.878;13.316;2023-03-11T08:53:00;93062.97;;;0.59;100.00
21588;BME280;10956;48.878;13.316;2023-03-11T08:55:28;93063.19;;;0.58;100.00
21588;BME280;10956;48.878;13.316;2023-03-11T08:57:53;93065.09;;;0.62;100.00
21588;BME280;10956;48.878;13.316;2023-03-11T09:00:19;93057.50;;;0.73;100.00
21588;BME280;10956;48.878;13.316;2023-03-11T09:02:45;93059.72;;;0.98;100.00
21588;BME280;10956;48.878;13.316;2023-03-11T09:05:12;93062.41;;;1.03;100.00
21588;BME280;10956;48.878;13.316;2023-03-11T09:07:37;93063.28;;;1.25;100.00
21588;BME280;10956;48.878;13.316;2023-03-11T09:10:03;93069.97;;;1.54;100.00
21588;BME280;10956;48.878;13.316;2023-03-11T09:12:29;93101.81;;;1.33;100.00
21588;BME280;10956;48.878;13.316;2023-03-11T09:14:54;93111.06;;;0.95;100.00
21588;BME280;10956;48.878;13.316;2023-03-11T09:17:20;93107.53;;;0.73;100.00
21588;BME280;10956;48.878;13.316;2023-03-11T09:19:46;93122.34;;;0.89;100.00
21588;BME280;10956;48.878;13.316;2023-03-11T09:22:11;93134.56;;;1.06;100.00
21588;BME280;10956;48.878;13.316;2023-03-11T09:24:36;93122.97;;;1.25;100.00
21588;BME280;10956;48.878;13.316;2023-03-11T09:27:02;93134.78;;;1.33;100.00
21588;BME280;10956;48.878;13.316;2023-03-11T09:29:28;93151.53;;;1.42;100.00
21588;BME280;10956;48.878;13.316;2023-03-11T09:31:53;93125.97;;;1.67;100.00
21588;BME280;10956;48.878;13.316;2023-03-11T09:34:19;93137.00;;;1.91;100.00
21588;BME280;10956;48.878;13.316;2023-03-11T09:36:45;93143.16;;;2.23;100.00
21588;BME280;10956;48.878;13.316;2023-03-11T09:39:11;93147.22;;;2.58;100.00
21588;BME280;10956;48.878;13.316;2023-03-11T09:46:43;93157.59;;;2.14;100.00
21588;BME280;10956;48.878;13.316;2023-03-11T09:52:08;93168.91;;;2.25;100.00
21588;BME280;10956;48.878;13.316;2023-03-11T09:54:40;93160.38;;;2.30;100.00
21588;BME280;10956;48.878;13.316;2023-03-11T09:57:13;93152.53;;;2.24;100.00
21588;BME280;10956;48.878;13.316;2023-03-11T09:59:40;93167.78;;;2.38;100.00
21588;BME280;10956;48.878;13.316;2023-03-11T10:02:13;93171.59;;;2.52;100.00
21588;BME280;10956;48.878;13.316;2023-03-11T10:04:59;93169.19;;;2.67;100.00
21588;BME280;10956;48.878;13.316;2023-03-11T10:07:30;93165.69;;;2.56;100.00
21588;BME280;10956;48.878;13.316;2023-03-11T10:09:58;93164.72;;;2.63;100.00
21588;BME280;10956;48.878;13.316;2023-03-11T10:15:27;93173.31;;;2.85;99.20
21588;BME280;10956;48.878;13.316;2023-03-11T10:26:13;93170.34;;;2.98;95.81
21588;BME280;10956;48.878;13.316;2023-03-11T10:34:03;93173.59;;;2.88;95.57
21588;BME280;10956;48.878;13.316;2023-03-11T10:36:39;93170.88;;;2.78;94.84
21588;BME280;10956;48.878;13.316;2023-03-11T10:39:09;93178.56;;;2.68;94.50
21588;BME280;10956;48.878;13.316;2023-03-11T10:42:05;93182.50;;;2.71;92.63
21588;BME280;10956;48.878;13.316;2023-03-11T10:44:38;93172.94;;;2.76;91.97
21588;BME280;10956;48.878;13.316;2023-03-11T10:47:05;93179.91;;;2.92;91.58
21588;BME280;10956;48.878;13.316;2023-03-11T10:49:30;93174.28;;;3.01;89.56
21588;BME280;10956;48.878;13.316;2023-03-11T10:51:56;93176.44;;;3.09;90.05
21588;BME280;10956;48.878;13.316;2023-03-11T10:54:35;93185.81;;;3.10;87.89
21588;BME280;10956;48.878;13.316;2023-03-11T10:57:21;93180.91;;;3.13;87.94
21588;BME280;10956;48.878;13.316;2023-03-11T10:59:49;93182.84;;;3.23;87.50
21588;BME280;10956;48.878;13.316;2023-03-11T11:02:29;93183.19;;;3.32;85.24
21588;BME280;10956;48.878;13.316;2023-03-11T11:07:37;93187.91;;;3.62;84.96
21588;BME280;10956;48.878;13.316;2023-03-11T11:10:16;93182.50;;;3.41;83.00
21588;BME280;10956;48.878;13.316;2023-03-11T11:12:59;93185.78;;;3.32;82.71
21588;BME280;10956;48.878;13.316;2023-03-11T11:18:01;93195.41;;;3.31;84.02
21588;BME280;10956;48.878;13.316;2023-03-11T11:20:28;93186.19;;;3.45;83.49
21588;BME280;10956;48.878;13.316;2023-03-11T11:22:57;93198.72;;;3.48;83.19
21588;BME280;10956;48.878;13.316;2023-03-11T11:25:37;93183.75;;;3.66;82.61
21588;BME280;10956;48.878;13.316;2023-03-11T11:28:17;93199.00;;;3.79;81.72
21588;BME280;10956;48.878;13.316;2023-03-11T11:30:55;93186.91;;;3.68;80.11
21588;BME280;10956;48.878;13.316;2023-03-11T11:33:37;93196.16;;;3.53;80.56
21588;BME280;10956;48.878;13.316;2023-03-11T11:36:04;93223.22;;;3.52;82.68
21588;BME280;10956;48.878;13.316;2023-03-11T11:38:35;93209.19;;;3.53;82.27
21588;BME280;10956;48.878;13.316;2023-03-11T11:41:03;93209.22;;;3.59;81.49
21588;BME280;10956;48.878;13.316;2023-03-11T11:46:58;93211.97;;;3.20;82.05
21588;BME280;10956;48.878;13.316;2023-03-11T11:53:07;93190.25;;;3.36;81.11
21588;BME280;10956;48.878;13.316;2023-03-11T11:55:43;93192.53;;;3.54;80.50
21588;BME280;10956;48.878;13.316;2023-03-11T11:58:11;93176.31;;;3.47;80.41
21588;BME280;10956;48.878;13.316;2023-03-11T12:00:53;93182.63;;;3.56;82.35
21588;BME280;10956;48.878;13.316;2023-03-11T12:13:01;93186.31;;;3.61;85.30
21588;BME280;10956;48.878;13.316;2023-03-11T12:18:55;93183.97;;;3.32;87.97
21588;BME280;10956;48.878;13.316;2023-03-11T12:21:47;93180.31;;;3.06;85.42
21588;BME280;10956;48.878;13.316;2023-03-11T12:24:57;93190.66;;;3.23;87.65
21588;BME280;10956;48.878;13.316;2023-03-11T12:27:28;93188.44;;;3.37;85.76
21588;BME280;10956;48.878;13.316;2023-03-11T12:30:44;93193.59;;;3.59;83.58
21588;BME280;10956;48.878;13.316;2023-03-11T12:36:44;93187.13;;;3.34;81.01
21588;BME280;10956;48.878;13.316;2023-03-11T12:39:30;93196.72;;;3.07;80.71
21588;BME280;10956;48.878;13.316;2023-03-11T12:42:42;93205.81;;;2.82;79.24
21588;BME280;10956;48.878;13.316;2023-03-11T12:45:46;93204.59;;;2.68;80.59
21588;BME280;10956;48.878;13.316;2023-03-11T12:55:52;93226.25;;;2.18;81.62
21588;BME280;10956;48.878;13.316;2023-03-11T13:11:19;93222.94;;;2.06;80.95
21588;BME280;10956;48.878;13.316;2023-03-11T13:17:18;93217.09;;;2.71;78.65
21588;BME280;10956;48.878;13.316;2023-03-11T13:27:33;93224.38;;;2.69;77.29
21588;BME280;10956;48.878;13.316;2023-03-11T13:30:54;93224.91;;;2.71;77.66
21588;BME280;10956;48.878;13.316;2023-03-11T13:40:53;93241.97;;;2.62;78.25
21588;BME280;10956;48.878;13.316;2023-03-11T13:43:24;93240.63;;;2.59;78.67
21588;BME280;10956;48.878;13.316;2023-03-11T13:46:17;93240.00;;;2.52;78.26
21588;BME280;10956;48.878;13.316;2023-03-11T13:58:15;93257.03;;;1.93;80.57
21588;BME280;10956;48.878;13.316;2023-03-11T14:08:09;93269.97;;;1.59;81.91
21588;BME280;10956;48.878;13.316;2023-03-11T14:14:45;93269.56;;;1.96;80.98
21588;BME280;10956;48.878;13.316;2023-03-11T14:17:19;93279.34;;;2.06;80.54
21588;BME280;10956;48.878;13.316;2023-03-11T14:20:06;93271.31;;;2.07;80.26
21588;BME280;10956;48.878;13.316;2023-03-11T14:22:36;93283.50;;;2.07;79.64
21588;BME280;10956;48.878;13.316;2023-03-11T14:25:31;93287.03;;;2.01;79.33
21588;BME280;10956;48.878;13.316;2023-03-11T14:28:02;93290.84;;;2.10;79.46
21588;BME280;10956;48.878;13.316;2023-03-11T14:30:33;93288.47;;;2.08;78.87
21588;BME280;10956;48.878;13.316;2023-03-11T14:33:01;93293.75;;;2.13;78.67
21588;BME280;10956;48.878;13.316;2023-03-11T14:36:05;93299.97;;;2.12;78.13
21588;BME280;10956;48.878;13.316;2023-03-11T14:38:49;93299.81;;;2.19;77.91
21588;BME280;10956;48.878;13.316;2023-03-11T14:41:18;93301.06;;;2.16;78.42
21588;BME280;10956;48.878;13.316;2023-03-11T14:47:09;93302.50;;;2.07;78.48
21588;BME280;10956;48.878;13.316;2023-03-11T14:49:38;93307.50;;;1.97;77.44
21588;BME280;10956;48.878;13.316;2023-03-11T14:55:07;93313.09;;;1.60;77.53
21588;BME280;10956;48.878;13.316;2023-03-11T15:03:34;93317.81;;;1.64;78.14
21588;BME280;10956;48.878;13.316;2023-03-11T15:06:08;93317.81;;;1.64;78.36
21588;BME280;10956;48.878;13.316;2023-03-11T15:08:42;93323.47;;;1.60;78.41
21588;BME280;10956;48.878;13.316;2023-03-11T15:16:43;93339.06;;;1.60;79.10
21588;BME280;10956;48.878;13.316;2023-03-11T15:24:48;93344.63;;;1.52;78.54
21588;BME280;10956;48.878;13.316;2023-03-11T15:27:53;93344.06;;;1.50;78.70